createdAt,value
2019-03-13T00:01:43.527Z,0.38
2019-03-13T00:04:13.896Z,0.35
2019-03-13T00:06:44.273Z,0.30
2019-03-13T00:09:15.811Z,0.27
2019-03-13T00:11:46.308Z,0.35
2019-03-13T00:14:19.756Z,0.37
2019-03-13T00:16:50.170Z,0.36
2019-03-13T00:19:20.414Z,0.35
2019-03-13T00:21:51.613Z,0.35
2019-03-13T00:24:23.614Z,0.24
2019-03-13T00:26:54.008Z,0.35
2019-03-13T00:29:24.425Z,0.35
2019-03-13T00:31:55.824Z,0.31
2019-03-13T00:34:26.204Z,0.29
2019-03-13T00:36:56.594Z,0.26
2019-03-13T00:39:27.052Z,0.22
2019-03-13T00:41:57.466Z,0.33
2019-03-13T00:44:27.841Z,0.29
2019-03-13T00:46:58.230Z,0.29
2019-03-13T00:49:28.600Z,0.19
2019-03-13T00:51:59.408Z,0.19
2019-03-13T00:54:29.772Z,0.17
2019-03-13T00:57:00.148Z,0.27
2019-03-13T00:59:30.541Z,0.39
2019-03-13T01:02:13.730Z,0.35
2019-03-13T01:04:45.680Z,0.42
2019-03-13T01:07:17.579Z,0.29
2019-03-13T01:09:49.482Z,0.22
2019-03-13T01:12:21.233Z,0.22
2019-03-13T01:14:51.709Z,0.35
2019-03-13T01:17:23.754Z,0.21
2019-03-13T01:19:54.595Z,0.21
2019-03-13T01:22:25.857Z,0.31
2019-03-13T01:24:56.281Z,0.36
2019-03-13T01:27:26.691Z,0.38
2019-03-13T01:29:58.093Z,0.44
2019-03-13T01:32:46.590Z,0.46
2019-03-13T01:35:21.218Z,0.43
2019-03-13T01:37:51.524Z,0.67
2019-03-13T01:40:21.828Z,0.67
2019-03-13T01:42:52.202Z,0.68
2019-03-13T01:45:22.575Z,0.81
2019-03-13T01:47:53.015Z,0.99
2019-03-13T01:50:23.398Z,1.08
2019-03-13T01:52:53.795Z,1.12
2019-03-13T01:55:24.188Z,1.04
2019-03-13T01:57:54.643Z,1.04
2019-03-13T02:00:25.027Z,1.14
2019-03-13T02:02:55.399Z,1.20
2019-03-13T02:05:25.827Z,1.08
2019-03-13T02:07:56.247Z,1.02
2019-03-13T02:10:26.623Z,1.01
2019-03-13T02:12:57.029Z,0.95
2019-03-13T02:15:29.155Z,0.91
2019-03-13T02:17:59.585Z,0.77
2019-03-13T02:20:29.985Z,0.73
2019-03-13T02:23:00.395Z,0.68
2019-03-13T02:25:30.765Z,0.68
2019-03-13T02:28:01.133Z,0.68
2019-03-13T02:30:32.457Z,0.73
2019-03-13T02:33:02.881Z,0.68
2019-03-13T02:35:33.286Z,0.56
2019-03-13T02:38:03.686Z,0.45
2019-03-13T02:40:34.051Z,0.43
2019-03-13T02:43:04.417Z,0.43
2019-03-13T02:45:34.833Z,0.29
2019-03-13T02:48:05.264Z,0.31
2019-03-13T02:50:35.688Z,0.17
2019-03-13T02:53:06.080Z,0.17
2019-03-13T02:55:36.492Z,0.28
2019-03-13T02:58:06.889Z,0.13
2019-03-13T03:00:44.856Z,0.11
2019-03-13T03:03:19.916Z,0.11
2019-03-13T03:05:50.291Z,0.09
2019-03-13T03:08:20.669Z,0.13
2019-03-13T03:10:51.051Z,0.10
2019-03-13T03:13:21.445Z,0.07
2019-03-13T03:15:51.856Z,0.02
2019-03-13T03:18:22.244Z,0.15
2019-03-13T03:20:52.677Z,0.15
2019-03-13T03:23:23.048Z,0.16
2019-03-13T03:25:53.435Z,0.24
2019-03-13T03:28:23.793Z,0.35
2019-03-13T03:30:54.186Z,0.34
2019-03-13T03:33:24.622Z,0.43
2019-03-13T03:35:54.969Z,0.37
2019-03-13T03:38:25.340Z,0.48
2019-03-13T03:40:55.745Z,0.45
2019-03-13T03:43:39.335Z,0.43
2019-03-13T03:45:58.228Z,0.43
2019-03-13T03:48:28.643Z,0.43
2019-03-13T03:50:59.006Z,0.42
2019-03-13T03:53:29.398Z,0.38
2019-03-13T03:56:01.321Z,0.38
2019-03-13T03:58:31.692Z,0.25
2019-03-13T04:01:02.078Z,0.04
2019-03-13T04:03:32.483Z,0.04
2019-03-13T04:06:02.863Z,-0.03
2019-03-13T04:08:37.415Z,-0.09
2019-03-13T04:11:05.311Z,-0.13
2019-03-13T04:13:35.697Z,-0.10
2019-03-13T04:16:06.099Z,-0.10
2019-03-13T04:18:36.443Z,-0.10
2019-03-13T04:21:06.852Z,-0.09
2019-03-13T04:23:37.114Z,-0.04
2019-03-13T04:26:07.486Z,0.06
2019-03-13T04:28:37.829Z,0.16
2019-03-13T04:31:08.210Z,0.30
2019-03-13T04:33:38.598Z,0.30
2019-03-13T04:36:08.980Z,0.43
2019-03-13T04:38:39.340Z,0.50
2019-03-13T04:41:09.782Z,0.55
2019-03-13T04:43:40.148Z,0.66
2019-03-13T04:46:10.531Z,0.77
2019-03-13T04:48:40.871Z,0.81
2019-03-13T04:51:11.271Z,0.66
2019-03-13T04:53:41.631Z,0.66
2019-03-13T04:56:11.985Z,0.71
2019-03-13T04:58:42.330Z,0.76
2019-03-13T05:01:12.717Z,0.75
2019-03-13T05:03:43.103Z,0.70
2019-03-13T05:06:16.635Z,0.61
2019-03-13T05:08:47.324Z,0.67
2019-03-13T05:11:17.698Z,0.77
2019-03-13T05:13:48.070Z,0.84
2019-03-13T05:16:18.437Z,0.79
2019-03-13T05:18:48.809Z,0.69
2019-03-13T05:21:19.178Z,0.74
2019-03-13T05:23:49.562Z,0.71
2019-03-13T05:26:19.912Z,0.69
2019-03-13T05:28:50.299Z,0.81
2019-03-13T05:31:20.655Z,1.06
2019-03-13T05:33:51.010Z,1.09
2019-03-13T05:36:21.390Z,1.07
2019-03-13T05:38:51.748Z,1.05
2019-03-13T05:41:22.150Z,1.08
2019-03-13T05:43:52.534Z,1.08
2019-03-13T05:46:22.914Z,1.00
2019-03-13T05:48:53.294Z,1.02
2019-03-13T05:51:25.303Z,1.10
2019-03-13T05:53:55.670Z,1.41
2019-03-13T05:56:26.040Z,1.51
2019-03-13T05:58:56.443Z,1.50
2019-03-13T06:01:26.859Z,1.64
2019-03-13T06:03:57.240Z,1.55
2019-03-13T06:06:27.644Z,1.71
2019-03-13T06:08:58.045Z,1.56
2019-03-13T06:11:28.398Z,1.59
2019-03-13T06:13:58.779Z,1.75
2019-03-13T06:16:29.186Z,1.63
2019-03-13T06:18:59.585Z,1.66
2019-03-13T06:21:29.978Z,1.73
2019-03-13T06:24:00.369Z,1.70
2019-03-13T06:26:32.455Z,1.66
2019-03-13T06:29:04.428Z,1.62
2019-03-13T06:31:34.785Z,1.45
2019-03-13T06:34:05.184Z,1.37
2019-03-13T06:36:35.572Z,1.47
2019-03-13T06:39:07.239Z,1.50
2019-03-13T06:41:37.636Z,1.26
2019-03-13T06:44:08.044Z,1.22
2019-03-13T06:46:38.438Z,1.10
2019-03-13T06:49:08.827Z,1.06
2019-03-13T06:51:39.211Z,1.02
2019-03-13T06:54:09.556Z,1.02
2019-03-13T06:56:39.972Z,1.06
2019-03-13T06:59:13.551Z,1.12
2019-03-13T07:02:01.927Z,1.37
2019-03-13T07:04:49.946Z,1.46
2019-03-13T07:07:36.716Z,1.73
2019-03-13T07:10:10.679Z,1.65
2019-03-13T07:12:45.803Z,1.67
2019-03-13T07:15:17.811Z,1.60
2019-03-13T07:17:49.772Z,1.49
2019-03-13T07:20:21.840Z,1.38
2019-03-13T07:22:53.775Z,1.40
2019-03-13T07:25:25.768Z,1.35
2019-03-13T07:28:12.902Z,1.56
2019-03-13T07:30:51.757Z,1.66
2019-03-13T07:33:23.720Z,1.78
2019-03-13T07:35:58.518Z,1.75
2019-03-13T07:38:46.395Z,2.02
2019-03-13T07:41:18.376Z,2.38
2019-03-13T07:43:56.028Z,2.77
2019-03-13T07:46:27.974Z,2.91
2019-03-13T07:49:02.931Z,2.85
2019-03-13T07:51:46.638Z,3.10
2019-03-13T07:54:24.311Z,3.38
2019-03-13T07:57:14.117Z,2.95
2019-03-13T07:59:48.766Z,2.69
2019-03-13T08:02:36.696Z,2.48
2019-03-13T08:05:27.698Z,2.17
2019-03-13T08:08:05.362Z,2.27
2019-03-13T08:10:45.862Z,2.54
2019-03-13T08:13:20.514Z,2.71
2019-03-13T08:15:52.377Z,2.61
2019-03-13T08:18:27.276Z,2.63
2019-03-13T08:20:59.236Z,2.65
2019-03-13T08:23:46.097Z,2.65
2019-03-13T08:26:17.998Z,2.70
2019-03-13T08:28:55.596Z,2.69
2019-03-13T08:31:31.527Z,2.88
2019-03-13T08:34:15.312Z,2.81
2019-03-13T08:37:05.648Z,2.93
2019-03-13T08:39:37.472Z,3.03
2019-03-13T08:42:21.393Z,2.85
2019-03-13T08:45:05.206Z,3.01
2019-03-13T08:47:55.359Z,3.28
2019-03-13T08:50:30.160Z,3.36
2019-03-13T08:53:02.026Z,3.03
2019-03-13T08:55:36.884Z,2.84
2019-03-13T08:58:11.498Z,2.91
2019-03-13T09:00:43.352Z,3.07
2019-03-13T09:03:15.897Z,3.30
2019-03-13T09:05:59.304Z,3.46
2019-03-13T09:08:49.389Z,3.66
2019-03-13T09:11:24.216Z,3.63
2019-03-13T09:13:56.049Z,3.68
2019-03-13T09:16:33.604Z,4.03
2019-03-13T09:19:11.539Z,3.91
2019-03-13T09:21:59.867Z,4.07
2019-03-13T09:24:34.665Z,3.49
2019-03-13T09:27:06.501Z,3.72
2019-03-13T09:29:38.561Z,4.22
2019-03-13T09:32:25.671Z,4.14
2019-03-13T09:35:03.309Z,4.01
2019-03-13T09:37:41.186Z,3.85
2019-03-13T09:40:28.367Z,3.78
2019-03-13T09:43:00.233Z,3.75
2019-03-13T09:45:32.118Z,3.64
2019-03-13T09:48:04.055Z,3.56
2019-03-13T09:50:36.059Z,3.62
2019-03-13T09:53:07.899Z,3.80
2019-03-13T09:55:45.421Z,4.07
2019-03-13T09:58:23.046Z,4.42
2019-03-13T10:00:57.651Z,4.55
2019-03-13T10:03:29.593Z,4.50
2019-03-13T10:06:01.586Z,4.37
2019-03-13T10:08:51.408Z,4.32
2019-03-13T10:11:41.489Z,4.46
2019-03-13T10:14:13.467Z,4.25
2019-03-13T10:16:54.396Z,4.59
2019-03-13T10:19:43.340Z,4.54
2019-03-13T10:22:31.648Z,4.99
2019-03-13T10:25:12.703Z,4.70
2019-03-13T10:27:47.555Z,4.49
2019-03-13T10:30:19.411Z,4.52
2019-03-13T10:33:07.374Z,4.25
2019-03-13T10:35:51.603Z,4.12
2019-03-13T10:38:23.440Z,3.85
2019-03-13T10:40:55.379Z,4.03
2019-03-13T10:43:45.435Z,4.27
2019-03-13T10:46:18.308Z,4.29
2019-03-13T10:48:58.025Z,4.19
2019-03-13T10:51:32.612Z,4.23
2019-03-13T10:54:04.469Z,4.35
2019-03-13T10:56:36.344Z,4.42
2019-03-13T10:59:08.329Z,4.50
2019-03-13T11:01:43.212Z,4.21
2019-03-13T11:04:18.090Z,4.21
2019-03-13T11:06:58.914Z,4.12
2019-03-13T11:09:37.800Z,4.64
2019-03-13T11:12:09.644Z,5.41
2019-03-13T11:14:59.562Z,5.45
2019-03-13T11:17:43.712Z,5.83
2019-03-13T11:20:15.509Z,5.89
2019-03-13T11:22:47.473Z,5.82
2019-03-13T11:25:19.324Z,5.77
2019-03-13T11:28:03.107Z,5.40
2019-03-13T11:30:38.091Z,5.06
2019-03-13T11:33:09.927Z,4.71
2019-03-13T11:35:56.743Z,4.79
2019-03-13T11:38:28.561Z,5.17
2019-03-13T11:41:00.512Z,5.03
2019-03-13T11:43:32.433Z,4.83
2019-03-13T11:46:19.327Z,4.46
2019-03-13T11:49:02.579Z,4.61
2019-03-13T11:51:40.577Z,4.73
2019-03-13T11:54:28.816Z,4.84
2019-03-13T11:57:10.332Z,4.48
2019-03-13T11:59:43.297Z,4.48
2019-03-13T12:02:31.123Z,4.19
2019-03-13T12:05:10.500Z,4.31
2019-03-13T12:07:48.441Z,4.41
2019-03-13T12:10:35.058Z,4.42
2019-03-13T12:13:13.013Z,4.48
2019-03-13T12:15:55.074Z,4.90
2019-03-13T12:18:43.196Z,4.80
2019-03-13T12:21:31.368Z,5.01
2019-03-13T12:24:09.291Z,4.68
2019-03-13T12:26:57.501Z,4.80
2019-03-13T12:29:32.308Z,4.31
2019-03-13T12:32:10.166Z,4.72
2019-03-13T12:34:51.033Z,4.81
2019-03-13T12:37:22.875Z,4.96
2019-03-13T12:40:13.090Z,4.90
2019-03-13T12:43:01.402Z,4.74
2019-03-13T12:45:37.900Z,4.71
2019-03-13T12:48:16.901Z,4.61
2019-03-13T12:50:49.012Z,4.53
2019-03-13T12:53:33.319Z,4.66
2019-03-13T12:56:08.024Z,4.66
2019-03-13T12:58:42.547Z,4.45
2019-03-13T13:01:17.355Z,4.43
2019-03-13T13:03:55.054Z,4.34
2019-03-13T13:06:30.000Z,4.69
2019-03-13T13:09:13.916Z,4.68
2019-03-13T13:11:52.015Z,4.59
2019-03-13T13:14:38.811Z,4.89
2019-03-13T13:17:29.160Z,4.89
2019-03-13T13:19:59.494Z,4.67
2019-03-13T13:22:29.768Z,4.70
2019-03-13T13:25:00.416Z,4.51
2019-03-13T13:27:30.913Z,4.47
2019-03-13T13:30:01.372Z,4.32
2019-03-13T13:32:31.743Z,4.07
2019-03-13T13:35:02.024Z,4.05
2019-03-13T13:37:32.318Z,4.06
2019-03-13T13:40:02.705Z,3.93
2019-03-13T13:42:33.239Z,3.90
2019-03-13T13:45:05.102Z,3.93
2019-03-13T13:47:36.270Z,3.94
2019-03-13T13:50:10.972Z,3.97
2019-03-13T13:52:43.784Z,3.86
2019-03-13T13:55:14.241Z,3.83
2019-03-13T13:57:46.081Z,3.87
2019-03-13T14:00:16.539Z,3.89
2019-03-13T14:02:46.934Z,3.91
2019-03-13T14:05:17.329Z,3.82
2019-03-13T14:07:47.724Z,3.87
2019-03-13T14:10:18.045Z,3.91
2019-03-13T14:12:48.395Z,3.87
2019-03-13T14:15:18.707Z,3.89
2019-03-13T14:17:49.002Z,3.83
2019-03-13T14:20:19.402Z,3.80
2019-03-13T14:22:49.814Z,3.80
2019-03-13T14:25:20.184Z,3.79
2019-03-13T14:27:51.571Z,3.77
2019-03-13T14:30:23.162Z,3.66
2019-03-13T14:32:53.617Z,3.58
2019-03-13T14:35:24.079Z,3.51
2019-03-13T14:37:54.470Z,3.39
2019-03-13T14:40:26.158Z,3.49
2019-03-13T14:42:56.545Z,3.54
2019-03-13T14:45:26.933Z,3.61
2019-03-13T14:47:59.223Z,3.50
2019-03-13T14:50:31.247Z,3.53
2019-03-13T14:53:04.372Z,3.41
2019-03-13T14:55:36.329Z,3.44
2019-03-13T14:58:11.863Z,3.41
2019-03-13T15:00:49.355Z,3.39
2019-03-13T15:03:19.787Z,3.21
2019-03-13T15:05:52.219Z,3.27
2019-03-13T15:08:24.070Z,3.30
2019-03-13T15:10:55.621Z,3.16
2019-03-13T15:13:33.633Z,3.19
2019-03-13T15:16:05.699Z,3.14
2019-03-13T15:18:37.621Z,3.00
2019-03-13T15:21:08.013Z,3.00
2019-03-13T15:23:40.478Z,3.08
2019-03-13T15:26:14.033Z,3.03
2019-03-13T15:28:47.263Z,2.93
2019-03-13T15:31:19.812Z,2.80
2019-03-13T15:33:52.655Z,2.90
2019-03-13T15:36:25.505Z,2.86
2019-03-13T15:38:59.032Z,2.63
2019-03-13T15:41:30.234Z,2.65
2019-03-13T15:44:04.764Z,2.27
2019-03-13T15:46:39.039Z,2.29
2019-03-13T15:49:09.460Z,2.59
2019-03-13T15:51:42.431Z,2.45
2019-03-13T15:54:14.513Z,2.34
2019-03-13T15:56:46.478Z,2.27
2019-03-13T15:59:20.555Z,2.19
2019-03-13T16:01:54.838Z,2.27
2019-03-13T16:04:26.801Z,2.11
2019-03-13T16:06:59.929Z,1.80
2019-03-13T16:09:30.787Z,2.00
2019-03-13T16:12:08.447Z,2.09
2019-03-13T16:14:38.986Z,2.21
2019-03-13T16:17:11.665Z,2.03
2019-03-13T16:19:43.593Z,1.95
2019-03-13T16:22:17.057Z,2.08
2019-03-13T16:24:47.575Z,2.02
2019-03-13T16:27:17.989Z,2.11
2019-03-13T16:29:48.998Z,1.80
2019-03-13T16:32:28.366Z,1.73
2019-03-13T16:35:00.554Z,1.71
2019-03-13T16:37:30.981Z,1.90
2019-03-13T16:40:04.944Z,1.71
2019-03-13T16:42:39.074Z,1.61
2019-03-13T16:45:13.812Z,1.81
2019-03-13T16:47:46.298Z,1.84
2019-03-13T16:50:21.322Z,1.77
2019-03-13T16:52:52.553Z,1.80
2019-03-13T16:55:23.749Z,1.63
2019-03-13T16:58:00.145Z,1.72
2019-03-13T17:00:35.240Z,1.75
2019-03-13T17:03:06.755Z,1.69
2019-03-13T17:05:40.167Z,1.58
2019-03-13T17:08:12.140Z,1.61
2019-03-13T17:10:46.112Z,1.62
2019-03-13T17:13:16.871Z,1.74
2019-03-13T17:15:51.214Z,1.59
2019-03-13T17:18:31.254Z,1.66
2019-03-13T17:21:01.739Z,1.71
2019-03-13T17:23:32.146Z,1.66
2019-03-13T17:26:06.255Z,1.54
2019-03-13T17:28:37.636Z,1.65
2019-03-13T17:31:08.404Z,1.57
2019-03-13T17:33:41.029Z,1.42
2019-03-13T17:36:11.484Z,1.50
2019-03-13T17:38:44.761Z,1.53
2019-03-13T17:41:17.622Z,1.40
2019-03-13T17:43:51.185Z,1.37
2019-03-13T17:46:22.442Z,1.45
2019-03-13T17:48:56.446Z,1.41
2019-03-13T17:51:26.851Z,1.48
2019-03-13T17:54:05.017Z,1.44
2019-03-13T17:56:38.755Z,1.32
2019-03-13T17:59:12.195Z,1.36
2019-03-13T18:01:44.754Z,1.34
2019-03-13T18:04:18.049Z,1.47
2019-03-13T18:06:48.474Z,1.43
2019-03-13T18:09:21.525Z,1.44
2019-03-13T18:11:57.951Z,1.33
2019-03-13T18:14:31.990Z,1.37
2019-03-13T18:17:03.333Z,1.33
2019-03-13T18:19:38.695Z,1.31
2019-03-13T18:22:12.200Z,1.29
2019-03-13T18:24:44.354Z,1.38
2019-03-13T18:27:14.723Z,1.21
2019-03-13T18:29:47.433Z,1.03
2019-03-13T18:32:23.877Z,1.15
2019-03-13T18:34:55.840Z,1.14
2019-03-13T18:37:26.243Z,1.21
2019-03-13T18:39:58.256Z,0.96
2019-03-13T18:42:28.738Z,0.84
2019-03-13T18:45:02.710Z,0.74
2019-03-13T18:47:33.631Z,0.65
2019-03-13T18:50:08.361Z,0.45
2019-03-13T18:52:41.916Z,0.68
2019-03-13T18:55:24.349Z,0.41
2019-03-13T18:57:57.668Z,0.48
2019-03-13T19:00:35.150Z,0.66
2019-03-13T19:03:09.831Z,0.77
2019-03-13T19:05:43.333Z,0.82
2019-03-13T19:08:18.713Z,0.51
2019-03-13T19:10:50.778Z,0.44
2019-03-13T19:13:21.470Z,0.49
2019-03-13T19:15:54.813Z,0.19
2019-03-13T19:18:28.311Z,0.36
2019-03-13T19:21:05.488Z,0.40
2019-03-13T19:23:37.321Z,0.70
2019-03-13T19:26:19.249Z,0.54
2019-03-13T19:28:56.304Z,0.33
2019-03-13T19:31:27.960Z,0.34
2019-03-13T19:34:00.167Z,0.41
2019-03-13T19:36:30.606Z,0.22
2019-03-13T19:39:04.806Z,0.15
2019-03-13T19:41:39.066Z,-0.01
2019-03-13T19:44:11.131Z,0.02
2019-03-13T19:46:42.169Z,-0.02
2019-03-13T19:49:15.754Z,0.11
2019-03-13T19:51:54.174Z,0.23
2019-03-13T19:54:28.730Z,0.23
2019-03-13T19:57:00.822Z,0.20
2019-03-13T19:59:36.855Z,0.26
2019-03-13T20:02:08.772Z,0.24
2019-03-13T20:04:47.564Z,0.23
2019-03-13T20:07:19.511Z,0.28
2019-03-13T20:09:50.189Z,0.50
2019-03-13T20:12:25.736Z,0.17
2019-03-13T20:15:02.339Z,0.27
2019-03-13T20:17:41.664Z,0.10
2019-03-13T20:20:22.942Z,0.07
2019-03-13T20:23:10.440Z,-0.17
2019-03-13T20:25:41.866Z,-0.17
2019-03-13T20:28:14.067Z,-0.07
2019-03-13T20:30:47.485Z,0.22
2019-03-13T20:33:22.326Z,0.06
2019-03-13T20:35:53.182Z,0.00
2019-03-13T20:38:25.873Z,-0.18
2019-03-13T20:40:57.309Z,-0.01
2019-03-13T20:43:27.747Z,-0.14
2019-03-13T20:45:58.196Z,-0.11
2019-03-13T20:48:30.295Z,0.12
2019-03-13T20:51:00.795Z,-0.07
2019-03-13T20:53:31.189Z,-0.29
2019-03-13T20:56:02.589Z,-0.43
2019-03-13T20:58:33.045Z,-0.42
2019-03-13T21:01:04.237Z,-0.23
2019-03-13T21:03:36.165Z,-0.13
2019-03-13T21:06:06.653Z,-0.06
2019-03-13T21:08:38.608Z,-0.17
2019-03-13T21:11:12.674Z,0.05
2019-03-13T21:13:43.065Z,-0.29
2019-03-13T21:16:13.559Z,-0.29
2019-03-13T21:18:47.070Z,-0.47
2019-03-13T21:21:21.833Z,-0.47
2019-03-13T21:23:53.855Z,-0.35
2019-03-13T21:26:25.814Z,-0.51
2019-03-13T21:28:57.761Z,-0.70
2019-03-13T21:31:31.397Z,-0.72
2019-03-13T21:34:01.786Z,-0.54
2019-03-13T21:36:34.462Z,-0.60
2019-03-13T21:39:05.664Z,-0.64
2019-03-13T21:41:38.697Z,-0.60
2019-03-13T21:44:09.088Z,-0.53
2019-03-13T21:46:39.472Z,-0.54
2019-03-13T21:49:11.421Z,-0.60
2019-03-13T21:51:42.092Z,-0.51
2019-03-13T21:54:12.500Z,-0.59
2019-03-13T21:56:46.028Z,-0.73
2019-03-13T21:59:18.687Z,-0.84
2019-03-13T22:01:53.248Z,-0.90
2019-03-13T22:04:25.963Z,-0.96
2019-03-13T22:07:01.975Z,-1.02
2019-03-13T22:09:32.376Z,-1.03
2019-03-13T22:12:05.885Z,-1.00
2019-03-13T22:14:38.601Z,-1.07
2019-03-13T22:17:10.061Z,-0.99
2019-03-13T22:19:40.610Z,-0.99
2019-03-13T22:22:15.034Z,-0.97
2019-03-13T22:24:46.476Z,-0.87
2019-03-13T22:27:22.983Z,-0.87
2019-03-13T22:30:08.593Z,-0.81
2019-03-13T22:32:38.984Z,-0.89
2019-03-13T22:35:11.664Z,-1.04
2019-03-13T22:37:42.092Z,-0.95
2019-03-13T22:40:26.986Z,-0.95
2019-03-13T22:42:57.379Z,-0.91
2019-03-13T22:45:27.912Z,-1.08
2019-03-13T22:50:46.142Z,-0.98
2019-03-13T22:53:19.262Z,-1.06
2019-03-13T22:55:51.728Z,-1.16
2019-03-13T22:58:24.535Z,-1.18
2019-03-13T23:00:57.797Z,-1.14
2019-03-13T23:03:30.755Z,-1.14
2019-03-13T23:06:01.222Z,-1.17
2019-03-13T23:08:31.641Z,-1.26
2019-03-13T23:11:03.641Z,-1.13
2019-03-13T23:13:34.054Z,-1.05
2019-03-13T23:16:04.500Z,-1.05
2019-03-13T23:18:35.589Z,-1.18
2019-03-13T23:21:05.989Z,-1.23
2019-03-13T23:23:38.131Z,-1.34
2019-03-13T23:26:08.733Z,-1.30
2019-03-13T23:28:39.451Z,-1.13
2019-03-13T23:31:09.835Z,-1.08
2019-03-13T23:33:40.237Z,-1.35
2019-03-13T23:36:15.042Z,-1.00
2019-03-13T23:38:49.852Z,-1.13
2019-03-13T23:41:22.522Z,-1.09
2019-03-13T23:43:55.730Z,-1.13
2019-03-13T23:46:28.982Z,-1.06
2019-03-13T23:48:59.402Z,-1.07
2019-03-13T23:51:33.241Z,-1.07
2019-03-13T23:54:10.143Z,-1.25
2019-03-13T23:56:40.594Z,-1.31
2019-03-13T23:59:15.312Z,-1.32
